createdAt,value
2022-10-29T00:00:10.428Z,14.41
2022-10-29T00:02:36.684Z,14.39
2022-10-29T00:05:02.893Z,14.39
2022-10-29T00:07:29.035Z,14.33
2022-10-29T00:09:55.155Z,14.34
2022-10-29T00:12:21.256Z,14.33
2022-10-29T00:14:47.422Z,14.32
2022-10-29T00:17:13.589Z,14.31
2022-10-29T00:19:39.696Z,14.32
2022-10-29T00:22:05.811Z,14.30
2022-10-29T00:24:31.982Z,14.26
2022-10-29T00:26:58.131Z,14.26
2022-10-29T00:29:24.267Z,14.26
2022-10-29T00:31:50.476Z,14.23
2022-10-29T00:34:16.630Z,14.18
2022-10-29T00:36:42.736Z,14.14
2022-10-29T00:39:08.854Z,14.11
2022-10-29T00:41:34.985Z,14.03
2022-10-29T00:44:01.113Z,14.00
2022-10-29T00:46:27.340Z,13.97
2022-10-29T00:48:53.518Z,13.94
2022-10-29T00:51:19.654Z,13.97
2022-10-29T00:53:45.762Z,13.98
2022-10-29T00:56:11.894Z,14.03
2022-10-29T00:58:38.013Z,14.09
2022-10-29T01:01:04.139Z,14.12
2022-10-29T01:03:30.279Z,14.14
2022-10-29T01:05:56.394Z,14.13
2022-10-29T01:08:22.538Z,14.13
2022-10-29T01:10:48.678Z,14.09
2022-10-29T01:15:45.880Z,14.02
2022-10-29T01:18:12.029Z,14.01
2022-10-29T01:20:38.168Z,14.01
2022-10-29T01:23:04.284Z,14.01
2022-10-29T01:25:30.434Z,14.02
2022-10-29T01:27:56.984Z,14.02
2022-10-29T01:30:23.400Z,14.04
2022-10-29T01:32:49.538Z,14.10
2022-10-29T01:35:15.661Z,14.11
2022-10-29T01:37:41.801Z,14.11
2022-10-29T01:40:07.939Z,14.11
2022-10-29T01:42:34.055Z,14.09
2022-10-29T01:45:00.193Z,14.06
2022-10-29T01:47:26.326Z,14.02
2022-10-29T01:49:52.436Z,13.97
2022-10-29T01:52:18.565Z,13.96
2022-10-29T01:54:44.673Z,13.92
2022-10-29T01:57:10.805Z,13.87
2022-10-29T01:59:51.540Z,13.84
2022-10-29T02:02:21.926Z,13.78
2022-10-29T02:04:48.054Z,13.73
2022-10-29T02:07:14.209Z,13.70
2022-10-29T02:09:40.401Z,13.67
2022-10-29T02:12:06.503Z,13.63
2022-10-29T02:14:32.619Z,13.59
2022-10-29T02:16:58.776Z,13.53
2022-10-29T02:19:24.886Z,13.50
2022-10-29T02:21:51.042Z,13.47
2022-10-29T02:24:17.167Z,13.43
2022-10-29T02:26:43.284Z,13.41
2022-10-29T02:29:09.428Z,13.38
2022-10-29T02:31:35.575Z,13.38
2022-10-29T02:34:01.694Z,13.32
2022-10-29T02:36:27.819Z,13.28
2022-10-29T02:38:53.953Z,13.25
2022-10-29T02:41:20.087Z,13.25
2022-10-29T02:43:46.230Z,13.26
2022-10-29T02:46:12.375Z,13.29
2022-10-29T02:48:38.515Z,13.32
2022-10-29T02:51:04.622Z,13.36
2022-10-29T02:53:30.743Z,13.40
2022-10-29T02:55:56.884Z,13.44
2022-10-29T02:58:23.008Z,13.47
2022-10-29T03:00:49.161Z,13.49
2022-10-29T03:03:15.279Z,13.48
2022-10-29T03:05:45.115Z,13.50
2022-10-29T03:08:12.612Z,13.51
2022-10-29T03:10:38.740Z,13.50
2022-10-29T03:13:04.872Z,13.49
2022-10-29T03:15:31.046Z,13.50
2022-10-29T03:17:57.593Z,13.47
2022-10-29T03:20:23.923Z,13.45
2022-10-29T03:22:50.080Z,13.42
2022-10-29T03:25:16.197Z,13.39
2022-10-29T03:27:42.330Z,13.41
2022-10-29T03:30:08.490Z,13.43
2022-10-29T03:32:34.623Z,13.50
2022-10-29T03:35:00.732Z,13.52
2022-10-29T03:37:26.853Z,13.32
2022-10-29T03:39:52.971Z,13.45
2022-10-29T03:42:19.109Z,13.40
2022-10-29T03:44:45.215Z,13.39
2022-10-29T03:47:11.374Z,13.32
2022-10-29T03:49:37.491Z,13.28
2022-10-29T03:52:03.603Z,13.27
2022-10-29T03:54:29.730Z,13.30
2022-10-29T03:56:55.832Z,13.30
2022-10-29T03:59:22.011Z,13.31
2022-10-29T04:01:48.361Z,13.34
2022-10-29T04:04:14.542Z,13.36
2022-10-29T04:06:40.643Z,13.38
2022-10-29T04:09:06.762Z,13.41
2022-10-29T04:11:32.920Z,13.45
2022-10-29T04:13:59.035Z,13.44
2022-10-29T04:16:25.142Z,13.44
2022-10-29T04:18:51.311Z,13.44
2022-10-29T04:29:35.820Z,13.48
2022-10-29T04:32:01.942Z,13.48
2022-10-29T04:34:28.100Z,13.49
2022-10-29T04:36:54.240Z,13.51
2022-10-29T04:39:22.592Z,13.55
2022-10-29T04:41:49.803Z,13.55
2022-10-29T04:44:15.987Z,13.58
2022-10-29T04:46:42.147Z,13.58
2022-10-29T04:49:08.366Z,13.58
2022-10-29T04:51:34.732Z,13.61
2022-10-29T04:54:00.846Z,13.64
2022-10-29T04:56:26.937Z,13.66
2022-10-29T04:58:53.116Z,13.70
2022-10-29T05:01:19.411Z,13.74
2022-10-29T05:03:45.627Z,13.76
2022-10-29T05:06:11.745Z,13.75
2022-10-29T05:08:37.879Z,13.76
2022-10-29T05:11:03.987Z,13.77
2022-10-29T05:13:30.136Z,13.76
2022-10-29T05:15:56.268Z,13.78
2022-10-29T05:18:22.380Z,13.79
2022-10-29T05:20:48.522Z,13.80
2022-10-29T05:23:14.678Z,13.80
2022-10-29T05:25:40.799Z,13.79
2022-10-29T05:28:06.932Z,13.79
2022-10-29T05:30:33.068Z,13.81
2022-10-29T05:32:59.321Z,13.83
2022-10-29T05:35:25.595Z,13.84
2022-10-29T05:37:51.743Z,13.86
2022-10-29T05:40:17.880Z,13.85
2022-10-29T05:42:47.319Z,13.84
2022-10-29T05:45:15.724Z,13.84
2022-10-29T05:47:41.859Z,13.84
2022-10-29T05:50:08.012Z,13.83
2022-10-29T05:52:34.170Z,13.84
2022-10-29T05:55:00.295Z,13.86
2022-10-29T05:57:26.520Z,13.89
2022-10-29T05:59:52.712Z,13.92
2022-10-29T06:02:18.980Z,13.95
2022-10-29T06:04:45.200Z,13.99
2022-10-29T06:07:11.388Z,14.01
2022-10-29T06:09:37.503Z,14.04
2022-10-29T06:12:03.635Z,14.08
2022-10-29T06:14:29.770Z,14.10
2022-10-29T06:16:57.016Z,14.12
2022-10-29T06:19:23.152Z,14.16
2022-10-29T06:21:49.283Z,14.17
2022-10-29T06:24:15.415Z,14.18
2022-10-29T06:26:41.675Z,14.19
2022-10-29T06:29:07.801Z,14.21
2022-10-29T06:31:33.920Z,14.24
2022-10-29T06:34:00.097Z,14.27
2022-10-29T06:36:26.217Z,14.27
2022-10-29T06:38:52.366Z,14.29
2022-10-29T06:41:18.502Z,14.30
2022-10-29T06:43:44.613Z,14.32
2022-10-29T06:46:11.986Z,14.34
2022-10-29T06:48:38.137Z,14.36
2022-10-29T06:51:04.267Z,14.39
2022-10-29T06:53:30.398Z,14.44
2022-10-29T06:55:56.536Z,14.48
2022-10-29T06:58:22.641Z,14.55
2022-10-29T07:00:48.830Z,14.61
2022-10-29T07:03:15.041Z,14.70
2022-10-29T07:05:41.163Z,14.78
2022-10-29T07:08:07.313Z,14.87
2022-10-29T07:10:33.429Z,14.98
2022-10-29T07:12:59.553Z,15.06
2022-10-29T07:15:27.687Z,15.19
2022-10-29T07:17:55.935Z,15.29
2022-10-29T07:20:22.273Z,15.41
2022-10-29T07:22:48.404Z,15.49
2022-10-29T07:25:14.570Z,15.56
2022-10-29T07:27:40.735Z,15.58
2022-10-29T07:30:06.916Z,15.68
2022-10-29T07:32:35.378Z,15.77
2022-10-29T07:35:01.537Z,15.81
2022-10-29T07:37:27.658Z,15.86
2022-10-29T07:39:53.799Z,15.93
2022-10-29T07:42:20.021Z,16.01
2022-10-29T07:44:46.126Z,16.07
2022-10-29T07:47:12.275Z,16.13
2022-10-29T07:49:38.376Z,16.21
2022-10-29T07:52:04.487Z,16.29
2022-10-29T07:54:30.630Z,16.38
2022-10-29T07:56:56.778Z,16.43
2022-10-29T07:59:22.918Z,16.53
2022-10-29T08:01:49.091Z,16.60
2022-10-29T08:04:15.261Z,16.73
2022-10-29T08:06:41.406Z,16.78
2022-10-29T08:09:07.757Z,16.81
2022-10-29T08:11:33.907Z,16.87
2022-10-29T08:14:00.060Z,16.91
2022-10-29T08:16:26.209Z,16.96
2022-10-29T08:18:52.335Z,16.98
2022-10-29T08:21:18.463Z,17.08
2022-10-29T08:23:44.606Z,17.12
2022-10-29T08:26:10.737Z,17.13
2022-10-29T08:28:36.885Z,17.21
2022-10-29T08:31:02.996Z,17.35
2022-10-29T08:33:29.112Z,17.65
2022-10-29T08:35:55.251Z,17.89
2022-10-29T08:38:21.374Z,18.12
2022-10-29T08:40:47.497Z,18.73
2022-10-29T08:43:13.632Z,18.78
2022-10-29T08:45:39.778Z,18.61
2022-10-29T08:48:05.907Z,18.52
2022-10-29T08:50:32.052Z,18.31
2022-10-29T08:55:47.476Z,18.47
2022-10-29T08:58:13.644Z,18.56
2022-10-29T09:00:39.791Z,18.63
2022-10-29T09:03:05.964Z,18.72
2022-10-29T09:05:32.178Z,18.79
2022-10-29T09:08:01.262Z,18.87
2022-10-29T09:10:28.567Z,18.96
2022-10-29T09:12:55.054Z,19.07
2022-10-29T09:15:21.299Z,19.26
2022-10-29T09:17:47.450Z,19.38
2022-10-29T09:20:13.617Z,19.54
2022-10-29T09:22:39.769Z,19.59
2022-10-29T09:25:05.911Z,19.58
2022-10-29T09:27:32.061Z,19.61
2022-10-29T09:29:58.173Z,19.65
2022-10-29T09:32:24.298Z,19.70
2022-10-29T09:34:50.529Z,19.90
2022-10-29T09:37:16.685Z,20.06
2022-10-29T09:39:42.815Z,20.47
2022-10-29T09:42:08.962Z,20.90
2022-10-29T09:44:35.113Z,21.11
2022-10-29T09:47:05.665Z,21.69
2022-10-29T09:49:34.797Z,22.44
2022-10-29T09:52:00.946Z,23.26
2022-10-29T09:54:27.059Z,23.89
2022-10-29T09:56:54.927Z,24.67
2022-10-29T09:59:22.152Z,25.18
2022-10-29T10:01:48.343Z,25.50
2022-10-29T10:04:14.549Z,25.65
2022-10-29T10:06:41.492Z,25.42
2022-10-29T10:09:07.703Z,25.11
2022-10-29T10:11:33.818Z,24.64
2022-10-29T10:13:59.949Z,23.95
2022-10-29T10:16:26.089Z,23.62
2022-10-29T10:18:52.245Z,23.45
2022-10-29T10:21:18.389Z,23.45
2022-10-29T10:23:44.543Z,23.37
2022-10-29T10:26:10.727Z,23.33
2022-10-29T10:28:36.857Z,23.45
2022-10-29T10:31:03.012Z,23.26
2022-10-29T10:33:29.197Z,22.90
2022-10-29T10:35:55.317Z,22.91
2022-10-29T10:38:21.443Z,23.17
2022-10-29T10:40:47.634Z,23.41
2022-10-29T10:43:13.800Z,23.82
2022-10-29T10:45:39.924Z,23.91
2022-10-29T10:48:06.213Z,24.06
2022-10-29T10:50:32.425Z,24.28
2022-10-29T10:52:58.921Z,24.72
2022-10-29T10:55:25.371Z,25.01
2022-10-29T10:57:51.579Z,24.92
2022-10-29T11:00:17.726Z,24.85
2022-10-29T11:02:43.869Z,24.42
2022-10-29T11:05:09.978Z,24.35
2022-10-29T11:07:36.174Z,24.42
2022-10-29T11:10:02.286Z,24.23
2022-10-29T11:12:28.446Z,24.09
2022-10-29T11:14:54.608Z,23.91
2022-10-29T11:17:20.765Z,23.61
2022-10-29T11:19:46.907Z,23.49
2022-10-29T11:22:13.032Z,23.32
2022-10-29T11:24:39.182Z,23.32
2022-10-29T11:27:05.318Z,23.40
2022-10-29T11:29:31.445Z,23.41
2022-10-29T11:31:57.563Z,23.38
2022-10-29T11:34:23.714Z,23.58
2022-10-29T11:36:49.867Z,23.83
2022-10-29T11:39:15.985Z,23.65
2022-10-29T11:41:42.174Z,23.45
2022-10-29T11:44:08.299Z,23.12
2022-10-29T11:46:34.469Z,22.89
2022-10-29T11:49:00.614Z,22.79
2022-10-29T11:51:26.754Z,22.69
2022-10-29T11:53:52.880Z,22.62
2022-10-29T11:56:19.017Z,22.62
2022-10-29T11:58:45.190Z,22.65
2022-10-29T12:01:11.395Z,22.64
2022-10-29T12:03:37.618Z,22.55
2022-10-29T12:06:03.778Z,22.43
2022-10-29T12:08:29.907Z,22.37
2022-10-29T12:10:56.065Z,22.37
2022-10-29T12:13:22.209Z,22.33
2022-10-29T12:15:48.331Z,22.27
2022-10-29T12:18:16.678Z,22.23
2022-10-29T12:20:42.864Z,22.21
2022-10-29T12:23:15.016Z,22.24
2022-10-29T12:25:41.835Z,22.27
2022-10-29T12:28:07.970Z,22.30
2022-10-29T12:30:34.131Z,22.41
2022-10-29T12:33:00.503Z,22.48
2022-10-29T12:35:26.756Z,22.48
2022-10-29T12:37:52.897Z,22.48
2022-10-29T12:40:19.062Z,22.46
2022-10-29T12:42:45.203Z,22.38
2022-10-29T12:45:11.340Z,22.45
2022-10-29T12:47:37.482Z,22.53
2022-10-29T12:50:03.621Z,22.42
2022-10-29T12:52:29.747Z,22.44
2022-10-29T12:54:58.247Z,22.46
2022-10-29T12:57:24.385Z,22.53
2022-10-29T12:59:50.504Z,22.53
2022-10-29T13:02:16.901Z,22.52
2022-10-29T13:04:43.205Z,22.54
2022-10-29T13:07:09.436Z,22.54
2022-10-29T13:09:35.692Z,22.57
2022-10-29T13:12:01.841Z,22.58
2022-10-29T13:14:28.026Z,22.54
2022-10-29T13:16:54.157Z,22.55
2022-10-29T13:19:20.290Z,22.42
2022-10-29T13:21:46.432Z,22.35
2022-10-29T13:27:05.527Z,22.19
2022-10-29T13:29:31.646Z,22.12
2022-10-29T13:32:03.596Z,22.15
2022-10-29T13:34:30.779Z,22.12
2022-10-29T13:37:01.652Z,22.15
2022-10-29T13:39:27.769Z,22.18
2022-10-29T13:41:53.909Z,22.21
2022-10-29T13:44:20.033Z,22.21
2022-10-29T13:46:46.182Z,22.25
2022-10-29T13:49:12.305Z,22.22
2022-10-29T13:51:38.501Z,22.17
2022-10-29T13:54:04.688Z,22.15
2022-10-29T13:56:30.837Z,22.09
2022-10-29T13:58:56.974Z,22.02
2022-10-29T14:01:23.188Z,22.02
2022-10-29T14:03:49.399Z,21.99
2022-10-29T14:06:15.522Z,21.98
2022-10-29T14:08:41.666Z,22.01
2022-10-29T14:11:07.851Z,22.05
2022-10-29T14:13:33.973Z,22.04
2022-10-29T14:16:00.149Z,22.05
2022-10-29T14:18:26.307Z,21.98
2022-10-29T14:20:52.448Z,22.00
2022-10-29T14:23:20.926Z,21.99
2022-10-29T14:25:47.074Z,21.98
2022-10-29T14:28:13.235Z,21.94
2022-10-29T14:30:39.376Z,21.89
2022-10-29T14:33:05.528Z,21.87
2022-10-29T14:35:31.670Z,21.81
2022-10-29T14:37:58.082Z,21.67
2022-10-29T14:40:24.531Z,21.63
2022-10-29T14:42:50.650Z,21.47
2022-10-29T14:45:16.775Z,21.39
2022-10-29T14:47:42.945Z,21.22
2022-10-29T14:50:09.104Z,21.15
2022-10-29T14:52:35.243Z,21.06
2022-10-29T14:55:01.370Z,20.97
2022-10-29T14:57:27.525Z,20.94
2022-10-29T14:59:53.658Z,20.86
2022-10-29T15:05:07.688Z,20.68
2022-10-29T15:07:33.985Z,20.56
2022-10-29T15:10:00.128Z,20.46
2022-10-29T15:12:26.261Z,20.27
2022-10-29T15:14:52.473Z,20.18
2022-10-29T15:17:18.608Z,20.11
2022-10-29T15:19:44.734Z,20.02
2022-10-29T15:22:10.862Z,19.94
2022-10-29T15:24:37.032Z,19.84
2022-10-29T15:27:03.152Z,19.79
2022-10-29T15:29:33.635Z,19.71
2022-10-29T15:32:01.636Z,19.62
2022-10-29T15:34:27.785Z,19.61
2022-10-29T15:36:53.934Z,19.57
2022-10-29T15:39:20.086Z,19.53
2022-10-29T15:41:46.253Z,19.44
2022-10-29T15:44:12.410Z,19.37
2022-10-29T15:46:39.482Z,19.28
2022-10-29T15:49:05.674Z,19.20
2022-10-29T15:51:31.825Z,19.08
2022-10-29T15:53:57.972Z,19.02
2022-10-29T15:56:24.114Z,18.92
2022-10-29T15:58:50.431Z,18.82
2022-10-29T16:01:16.696Z,18.75
2022-10-29T16:03:42.926Z,18.66
2022-10-29T16:06:09.087Z,18.57
2022-10-29T16:08:35.212Z,18.52
2022-10-29T16:11:01.369Z,18.44
2022-10-29T16:13:27.500Z,18.38
2022-10-29T16:15:53.635Z,18.35
2022-10-29T16:18:19.783Z,18.30
2022-10-29T16:20:45.910Z,18.27
2022-10-29T16:23:12.071Z,18.14
2022-10-29T16:25:38.271Z,18.07
2022-10-29T16:28:04.465Z,18.01
2022-10-29T16:30:30.641Z,18.00
2022-10-29T16:32:57.030Z,17.94
2022-10-29T16:35:23.348Z,17.90
2022-10-29T16:37:49.456Z,17.86
2022-10-29T16:40:15.610Z,17.80
2022-10-29T16:42:41.779Z,17.73
2022-10-29T16:45:07.933Z,17.69
2022-10-29T16:47:34.058Z,17.64
2022-10-29T16:50:00.258Z,17.61
2022-10-29T16:52:29.486Z,17.57
2022-10-29T16:54:56.046Z,17.51
2022-10-29T16:57:22.209Z,17.46
2022-10-29T16:59:48.341Z,17.40
2022-10-29T17:02:14.504Z,17.38
2022-10-29T17:04:40.702Z,17.34
2022-10-29T17:07:09.625Z,17.30
2022-10-29T17:09:35.739Z,17.25
2022-10-29T17:12:01.928Z,17.21
2022-10-29T17:14:28.079Z,17.28
2022-10-29T17:16:54.220Z,17.22
2022-10-29T17:19:20.361Z,17.19
2022-10-29T17:21:46.479Z,17.17
2022-10-29T17:24:12.594Z,17.14
2022-10-29T17:26:38.747Z,17.09
2022-10-29T17:29:04.898Z,17.08
2022-10-29T17:31:31.062Z,17.05
2022-10-29T17:33:57.214Z,16.99
2022-10-29T17:36:23.333Z,16.95
2022-10-29T17:38:49.443Z,16.85
2022-10-29T17:41:15.600Z,16.81
2022-10-29T17:43:41.732Z,16.77
2022-10-29T17:46:07.835Z,16.77
2022-10-29T17:48:33.969Z,16.73
2022-10-29T17:51:00.108Z,16.68
2022-10-29T17:53:26.266Z,16.67
2022-10-29T17:55:52.792Z,16.66
2022-10-29T17:58:18.922Z,16.60
2022-10-29T18:00:45.077Z,16.58
2022-10-29T18:03:11.259Z,16.53
2022-10-29T18:05:37.426Z,16.53
2022-10-29T18:08:03.572Z,16.47
2022-10-29T18:10:29.687Z,16.45
2022-10-29T18:12:55.825Z,16.44
2022-10-29T18:15:22.003Z,16.42
2022-10-29T18:17:48.192Z,16.37
2022-10-29T18:20:16.331Z,16.33
2022-10-29T18:22:42.466Z,16.27
2022-10-29T18:25:08.601Z,16.26
2022-10-29T18:27:34.734Z,16.19
2022-10-29T18:30:00.910Z,16.19
2022-10-29T18:32:27.037Z,16.15
2022-10-29T18:34:53.181Z,16.11
2022-10-29T18:37:20.586Z,16.08
2022-10-29T18:39:46.749Z,16.05
2022-10-29T18:42:12.895Z,16.05
2022-10-29T18:44:42.834Z,15.98
2022-10-29T18:47:08.965Z,15.97
2022-10-29T18:49:37.949Z,15.94
2022-10-29T18:52:04.064Z,15.91
2022-10-29T18:54:30.222Z,15.90
2022-10-29T18:56:56.489Z,15.86
2022-10-29T19:02:02.757Z,15.85
2022-10-29T19:04:29.005Z,15.84
2022-10-29T19:06:55.175Z,15.84
2022-10-29T19:09:21.298Z,15.84
2022-10-29T19:11:47.420Z,15.83
2022-10-29T19:17:06.837Z,15.82
2022-10-29T19:19:34.008Z,15.83
2022-10-29T19:22:10.780Z,15.80
2022-10-29T19:24:36.954Z,15.80
2022-10-29T19:27:03.143Z,15.79
2022-10-29T19:29:29.324Z,15.77
2022-10-29T19:31:55.451Z,15.77
2022-10-29T19:34:21.612Z,15.76
2022-10-29T19:36:47.959Z,15.74
2022-10-29T19:39:15.821Z,15.73
2022-10-29T19:41:45.132Z,15.72
2022-10-29T19:44:11.941Z,15.72
2022-10-29T19:46:38.253Z,15.73
2022-10-29T19:49:05.216Z,15.73
2022-10-29T19:51:31.472Z,15.71
2022-10-29T19:53:58.773Z,15.68
2022-10-29T19:56:27.297Z,15.68
2022-10-29T19:58:53.623Z,15.67
2022-10-29T20:01:21.013Z,15.69
2022-10-29T20:03:47.247Z,15.70
2022-10-29T20:06:13.393Z,15.67
2022-10-29T20:08:39.543Z,15.70
2022-10-29T20:11:05.916Z,15.69
2022-10-29T20:13:32.109Z,15.72
2022-10-29T20:15:58.280Z,15.75
2022-10-29T20:18:24.439Z,15.73
2022-10-29T20:20:53.989Z,15.71
2022-10-29T20:23:20.138Z,15.69
2022-10-29T20:25:46.279Z,15.64
2022-10-29T20:28:12.522Z,15.61
2022-10-29T20:30:38.657Z,15.62
2022-10-29T20:33:04.894Z,15.59
2022-10-29T20:35:31.038Z,15.58
2022-10-29T20:37:59.542Z,15.56
2022-10-29T20:40:26.044Z,15.56
2022-10-29T20:42:52.281Z,15.53
2022-10-29T20:45:18.506Z,15.51
2022-10-29T20:47:44.743Z,15.51
2022-10-29T20:50:10.889Z,15.50
2022-10-29T20:52:37.008Z,15.50
2022-10-29T21:00:44.928Z,15.49
2022-10-29T21:11:18.131Z,15.44
2022-10-29T21:36:18.830Z,15.63
2022-10-29T21:38:44.960Z,15.66
2022-10-29T21:41:11.081Z,15.69
2022-10-29T21:43:37.270Z,15.72
2022-10-29T21:46:03.431Z,15.74
2022-10-29T21:48:29.562Z,15.75
2022-10-29T21:50:55.680Z,15.73
2022-10-29T21:53:21.850Z,15.71
2022-10-29T21:55:47.971Z,15.69
2022-10-29T21:58:14.123Z,15.68
2022-10-29T22:00:40.453Z,15.60
2022-10-29T22:03:06.616Z,15.58
2022-10-29T22:05:32.800Z,15.56
2022-10-29T22:07:59.192Z,15.52
2022-10-29T22:10:25.827Z,15.46
2022-10-29T22:12:51.975Z,15.44
2022-10-29T22:15:18.107Z,15.39
2022-10-29T22:17:44.250Z,15.31
2022-10-29T22:20:10.431Z,15.28
2022-10-29T22:22:36.601Z,15.20
2022-10-29T22:25:02.759Z,15.14
2022-10-29T22:27:28.935Z,15.07
2022-10-29T22:29:55.075Z,15.03
2022-10-29T22:32:21.206Z,15.02
2022-10-29T22:34:47.389Z,15.02
2022-10-29T22:37:13.567Z,14.94
2022-10-29T22:39:39.705Z,14.90
2022-10-29T22:42:05.849Z,14.86
2022-10-29T22:44:32.048Z,14.83
2022-10-29T22:46:58.218Z,14.78
2022-10-29T22:49:24.428Z,14.73
2022-10-29T22:51:50.546Z,14.68
2022-10-29T22:54:17.007Z,14.64
2022-10-29T22:56:44.017Z,14.60
2022-10-29T22:59:10.188Z,14.55
2022-10-29T23:01:38.957Z,14.54
2022-10-29T23:04:08.526Z,14.50
2022-10-29T23:06:34.646Z,14.49
2022-10-29T23:09:00.845Z,14.47
2022-10-29T23:11:26.982Z,14.47
2022-10-29T23:13:53.152Z,14.47
2022-10-29T23:16:19.288Z,14.46
2022-10-29T23:18:45.459Z,14.48
2022-10-29T23:21:11.588Z,14.50
2022-10-29T23:23:37.748Z,14.57
2022-10-29T23:26:03.863Z,14.64
2022-10-29T23:28:29.990Z,14.68
2022-10-29T23:30:56.134Z,14.71
2022-10-29T23:33:22.331Z,14.73
2022-10-29T23:35:48.463Z,14.80
2022-10-29T23:38:14.628Z,14.82
2022-10-29T23:40:40.799Z,14.87
2022-10-29T23:43:06.930Z,14.90
2022-10-29T23:45:33.104Z,14.93
2022-10-29T23:47:59.596Z,14.94
2022-10-29T23:50:26.177Z,14.96
2022-10-29T23:52:52.338Z,14.97
2022-10-29T23:55:18.478Z,14.98
2022-10-29T23:57:44.653Z,15.00
